Avondale, Alabama
Current Conditions -  °F | °C
As of 5:53 PM on Wednesday 26 Nov 2014 (Local Time) from KBHM Reporting Station
Scattered Clouds Scattered Clouds  
Wind Chill: 52°   Ceiling: Unl
Heat Index: 52°   Visibility: 10mi
Dew Point: 28°   Wind: 8mph
Humidity: 40%   Direction: 210°SSW
Pressure: 30.08"   Gusts: NA
Location:  33.5222°N, 86.7699°W
Report Text: KBHM 262353Z 21007KT 10SM SCT120 11/M02 A3008 RMK AO2 SLP188 T01111022 10144 20106 55001
Loading
Personal Weather Stations






























Interactive Weather Map New forecast layout! Learn more

10-Day Weather Forecast

Advertisements
Track Severe Weather on mobile